createdAt,value
2023-01-06T00:02:09.719Z,23.35
2023-01-06T00:04:29.854Z,23.33
2023-01-06T00:06:49.581Z,22.95
2023-01-06T00:09:09.421Z,21.65
2023-01-06T00:11:29.400Z,21.15
2023-01-06T00:13:49.385Z,22.05
2023-01-06T00:16:11.772Z,23.17
2023-01-06T00:18:31.611Z,21.23
2023-01-06T00:20:51.715Z,19.27
2023-01-06T00:23:11.421Z,21.05
2023-01-06T00:25:31.138Z,19.05
2023-01-06T00:27:50.833Z,17.58
2023-01-06T00:30:11.855Z,18.33
2023-01-06T00:32:31.412Z,18.88
2023-01-06T00:34:51.512Z,18.05
2023-01-06T00:37:11.857Z,17.85
2023-01-06T00:39:31.807Z,18.63
2023-01-06T00:42:03.702Z,17.70
2023-01-06T00:44:23.851Z,18.23
2023-01-06T00:46:43.663Z,20.55
2023-01-06T00:49:05.778Z,19.98
2023-01-06T00:51:26.327Z,21.02
2023-01-06T00:53:46.262Z,20.67
2023-01-06T00:56:06.440Z,19.48
2023-01-06T00:58:30.350Z,20.98
2023-01-06T01:00:50.455Z,19.42
2023-01-06T01:03:10.615Z,19.10
2023-01-06T01:05:30.681Z,18.20
2023-01-06T01:07:50.347Z,20.20
2023-01-06T01:10:10.491Z,19.27
2023-01-06T01:12:30.737Z,20.88
2023-01-06T01:14:52.906Z,21.30
2023-01-06T01:17:19.814Z,20.77
2023-01-06T01:19:40.277Z,21.98
2023-01-06T01:22:00.820Z,22.83
2023-01-06T01:24:21.902Z,21.95
2023-01-06T01:26:41.627Z,23.42
2023-01-06T01:29:01.302Z,22.52
2023-01-06T01:31:21.358Z,21.05
2023-01-06T01:33:42.065Z,21.65
2023-01-06T01:36:07.147Z,22.60
2023-01-06T01:38:27.008Z,22.38
2023-01-06T01:40:48.011Z,21.30
2023-01-06T01:43:11.378Z,18.65
2023-01-06T01:45:31.713Z,17.58
2023-01-06T01:48:05.336Z,18.55
2023-01-06T01:50:31.633Z,22.58
2023-01-06T01:52:55.742Z,21.35
2023-01-06T01:55:17.304Z,21.48
2023-01-06T01:57:49.846Z,22.63
2023-01-06T02:00:10.184Z,19.53
2023-01-06T02:02:31.284Z,17.73
2023-01-06T02:04:54.045Z,17.92
2023-01-06T02:07:13.935Z,18.75
2023-01-06T02:09:48.654Z,16.70
2023-01-06T02:12:08.831Z,17.10
2023-01-06T02:14:29.636Z,18.05
2023-01-06T02:17:11.091Z,18.33
2023-01-06T02:19:46.145Z,17.10
2023-01-06T02:22:16.333Z,17.40
2023-01-06T02:24:42.134Z,17.08
2023-01-06T02:27:32.797Z,17.13
2023-01-06T02:29:55.379Z,16.48
2023-01-06T02:32:15.255Z,18.40
2023-01-06T02:34:45.709Z,17.70
2023-01-06T02:37:31.979Z,18.38
2023-01-06T02:40:09.466Z,16.77
2023-01-06T02:42:45.238Z,17.33
2023-01-06T02:45:16.252Z,17.92
2023-01-06T02:48:08.187Z,15.88
2023-01-06T02:50:40.021Z,16.80
2023-01-06T02:53:17.929Z,15.52
2023-01-06T02:55:53.683Z,16.23
2023-01-06T02:58:31.748Z,15.82
2023-01-06T03:01:31.143Z,17.38
2023-01-06T03:03:53.265Z,16.90
2023-01-06T03:06:17.042Z,17.38
2023-01-06T03:08:38.003Z,17.25
2023-01-06T03:10:59.835Z,17.70
2023-01-06T03:13:40.846Z,17.48
2023-01-06T03:16:01.072Z,17.45
2023-01-06T03:18:20.874Z,16.77
2023-01-06T03:20:40.842Z,17.05
2023-01-06T03:23:00.854Z,16.80
2023-01-06T03:25:21.472Z,17.13
2023-01-06T03:27:41.483Z,16.17
2023-01-06T03:30:06.100Z,17.02
2023-01-06T03:32:46.203Z,16.02
2023-01-06T03:35:29.665Z,17.23
2023-01-06T03:37:49.471Z,15.20
2023-01-06T03:40:30.368Z,16.00
2023-01-06T03:43:44.995Z,16.58
2023-01-06T03:46:33.558Z,16.42
2023-01-06T03:49:23.600Z,15.63
2023-01-06T03:51:49.138Z,15.45
2023-01-06T03:54:26.897Z,16.52
2023-01-06T03:57:01.706Z,16.63
2023-01-06T03:59:26.060Z,15.68
2023-01-06T04:01:47.679Z,17.60
2023-01-06T04:04:07.541Z,18.00
2023-01-06T04:06:27.446Z,15.68
2023-01-06T04:08:47.336Z,17.02
2023-01-06T04:11:07.229Z,16.52
2023-01-06T04:13:27.062Z,17.38
2023-01-06T04:15:46.900Z,15.52
2023-01-06T04:18:06.687Z,16.20
2023-01-06T04:20:29.717Z,14.43
2023-01-06T04:22:49.670Z,16.60
2023-01-06T04:25:09.617Z,15.55
2023-01-06T04:27:29.695Z,15.15
2023-01-06T04:29:49.884Z,15.50
2023-01-06T04:32:09.738Z,15.13
2023-01-06T04:34:29.807Z,16.13
2023-01-06T04:36:49.595Z,15.77
2023-01-06T04:39:09.668Z,14.63
2023-01-06T04:41:31.317Z,15.63
2023-01-06T04:43:51.354Z,15.40
2023-01-06T04:46:11.709Z,15.38
2023-01-06T04:48:31.682Z,16.55
2023-01-06T04:51:06.492Z,14.40
2023-01-06T04:53:26.243Z,15.15
2023-01-06T04:55:45.679Z,14.02
2023-01-06T04:58:05.517Z,13.65
2023-01-06T05:00:25.439Z,14.50
2023-01-06T05:02:46.471Z,15.13
2023-01-06T05:05:06.696Z,14.52
2023-01-06T05:07:26.176Z,16.73
2023-01-06T05:09:45.749Z,17.17
2023-01-06T05:12:05.587Z,17.48
2023-01-06T05:14:25.694Z,16.90
2023-01-06T05:16:45.856Z,17.88
2023-01-06T05:19:06.143Z,15.35
2023-01-06T05:21:30.339Z,14.45
2023-01-06T05:23:52.866Z,15.32
2023-01-06T05:26:19.661Z,13.32
2023-01-06T05:28:39.812Z,13.77
2023-01-06T05:31:03.753Z,14.55
2023-01-06T05:33:23.865Z,12.93
2023-01-06T05:35:43.701Z,13.57
2023-01-06T05:38:03.387Z,13.43
2023-01-06T05:40:23.564Z,12.45
2023-01-06T05:42:43.204Z,13.00
2023-01-06T05:45:03.812Z,16.05
2023-01-06T05:47:23.452Z,17.42
2023-01-06T05:49:43.553Z,16.08
2023-01-06T05:52:03.991Z,14.82
2023-01-06T05:54:24.052Z,14.00
2023-01-06T05:56:43.645Z,13.45
2023-01-06T05:59:03.713Z,15.60
2023-01-06T06:01:27.783Z,16.65
2023-01-06T06:03:48.282Z,18.50
2023-01-06T06:06:08.134Z,17.38
2023-01-06T06:08:28.625Z,19.15
2023-01-06T06:10:48.049Z,21.60
2023-01-06T06:13:07.614Z,19.63
2023-01-06T06:15:27.931Z,19.48
2023-01-06T06:17:47.664Z,19.70
2023-01-06T06:20:07.710Z,17.90
2023-01-06T06:22:27.781Z,17.88
2023-01-06T06:24:47.403Z,17.17
2023-01-06T06:27:07.593Z,17.83
2023-01-06T06:29:27.709Z,21.17
2023-01-06T06:31:47.819Z,20.00
2023-01-06T06:34:11.927Z,17.75
2023-01-06T06:36:31.841Z,16.15
2023-01-06T06:38:52.658Z,16.40
2023-01-06T06:41:13.071Z,16.50
2023-01-06T06:43:33.255Z,19.05
2023-01-06T06:45:53.338Z,20.35
2023-01-06T06:48:13.958Z,16.83
2023-01-06T06:50:33.617Z,14.52
2023-01-06T06:52:55.114Z,14.77
2023-01-06T06:55:14.937Z,15.60
2023-01-06T06:57:35.074Z,15.55
2023-01-06T06:59:54.657Z,14.68
2023-01-06T07:02:14.319Z,15.73
2023-01-06T07:04:34.586Z,14.20
2023-01-06T07:06:56.044Z,14.95
2023-01-06T07:09:15.980Z,15.20
2023-01-06T07:11:37.006Z,15.20
2023-01-06T07:13:57.142Z,15.13
2023-01-06T07:16:19.090Z,13.63
2023-01-06T07:18:39.563Z,14.43
2023-01-06T07:21:00.251Z,12.50
2023-01-06T07:23:21.872Z,13.73
2023-01-06T07:25:41.790Z,14.40
2023-01-06T07:28:06.529Z,15.85
2023-01-06T07:30:27.249Z,17.73
2023-01-06T07:32:47.018Z,17.05
2023-01-06T07:35:07.003Z,16.35
2023-01-06T07:37:26.963Z,19.58
2023-01-06T07:39:46.632Z,16.00
2023-01-06T07:42:08.651Z,22.13
2023-01-06T07:44:28.414Z,19.93
2023-01-06T07:46:48.085Z,24.35
2023-01-06T07:49:07.774Z,38.25
2023-01-06T07:51:27.775Z,28.77
2023-01-06T07:53:47.947Z,23.67
2023-01-06T07:56:07.556Z,23.83
2023-01-06T07:58:28.766Z,25.55
2023-01-06T08:00:49.710Z,25.95
2023-01-06T08:03:13.613Z,24.20
2023-01-06T08:05:37.812Z,22.20
2023-01-06T08:07:58.050Z,23.23
2023-01-06T08:10:17.879Z,19.77
2023-01-06T08:12:37.825Z,19.30
2023-01-06T08:14:57.483Z,21.60
2023-01-06T08:17:17.007Z,21.55
2023-01-06T08:19:36.481Z,21.67
2023-01-06T08:21:56.176Z,20.25
2023-01-06T08:24:15.716Z,21.05
2023-01-06T08:26:35.443Z,18.70
2023-01-06T08:28:55.494Z,17.98
2023-01-06T08:31:18.420Z,23.65
2023-01-06T08:35:59.733Z,18.55
2023-01-06T08:38:19.860Z,19.85
2023-01-06T08:40:40.078Z,19.60
2023-01-06T08:42:59.792Z,19.40
2023-01-06T08:45:20.005Z,20.50
2023-01-06T08:47:39.899Z,17.17
2023-01-06T08:49:59.852Z,24.38
2023-01-06T08:52:19.430Z,14.95
2023-01-06T08:54:39.511Z,14.15
2023-01-06T08:56:59.372Z,13.93
2023-01-06T08:59:19.063Z,13.30
2023-01-06T09:01:39.098Z,12.48
2023-01-06T09:04:01.167Z,13.30
2023-01-06T09:06:22.016Z,10.52
2023-01-06T09:08:42.372Z,11.07
2023-01-06T09:11:07.800Z,9.38
2023-01-06T09:13:27.861Z,9.23
2023-01-06T09:15:48.420Z,13.90
2023-01-06T09:18:09.794Z,17.48
2023-01-06T09:20:29.707Z,15.35
2023-01-06T09:22:49.276Z,16.48
2023-01-06T09:25:09.111Z,11.35
2023-01-06T09:27:29.354Z,16.20
2023-01-06T09:29:49.909Z,24.05
2023-01-06T09:32:09.801Z,22.70
2023-01-06T09:34:29.358Z,9.13
2023-01-06T09:36:49.083Z,8.68
2023-01-06T09:39:09.303Z,6.07
2023-01-06T09:41:53.496Z,9.75
2023-01-06T09:44:29.991Z,9.70
2023-01-06T09:46:51.631Z,8.95
2023-01-06T09:49:24.637Z,17.23
2023-01-06T09:51:45.001Z,14.98
2023-01-06T09:54:31.055Z,10.90
2023-01-06T09:57:02.190Z,9.95
2023-01-06T09:59:42.548Z,10.70
2023-01-06T10:02:08.392Z,8.20
2023-01-06T10:04:30.369Z,7.95
2023-01-06T10:07:10.803Z,6.53
2023-01-06T10:09:49.212Z,5.88
2023-01-06T10:12:19.216Z,5.85
2023-01-06T10:14:51.233Z,4.10
2023-01-06T10:17:24.577Z,4.40
2023-01-06T10:20:26.223Z,3.95
2023-01-06T10:23:16.405Z,3.10
2023-01-06T10:26:08.735Z,4.03
2023-01-06T10:28:36.182Z,4.35
2023-01-06T10:31:13.707Z,4.68
2023-01-06T10:33:36.924Z,4.32
2023-01-06T10:36:00.436Z,4.40
2023-01-06T10:38:32.337Z,5.13
2023-01-06T10:40:54.891Z,3.63
2023-01-06T10:43:15.050Z,4.55
2023-01-06T10:45:39.637Z,3.55
2023-01-06T10:48:01.583Z,5.90
2023-01-06T10:50:22.693Z,3.85
2023-01-06T10:52:43.593Z,5.50
2023-01-06T10:55:05.471Z,4.38
2023-01-06T10:57:35.176Z,4.18
2023-01-06T11:00:22.403Z,3.88
2023-01-06T11:02:45.250Z,5.50
2023-01-06T11:05:05.730Z,5.78
2023-01-06T11:07:25.681Z,6.43
2023-01-06T11:09:45.963Z,5.97
2023-01-06T11:12:19.993Z,4.78
2023-01-06T11:14:41.170Z,5.32
2023-01-06T11:17:03.935Z,4.85
2023-01-06T11:19:44.969Z,4.68
2023-01-06T11:22:25.561Z,5.30
2023-01-06T11:24:52.345Z,3.35
2023-01-06T11:27:16.660Z,3.78
2023-01-06T11:29:36.608Z,3.92
2023-01-06T11:32:00.756Z,5.50
2023-01-06T11:34:23.996Z,5.70
2023-01-06T11:36:46.514Z,5.80
2023-01-06T11:39:17.266Z,3.97
2023-01-06T11:41:39.165Z,4.10
2023-01-06T11:44:39.418Z,4.47
2023-01-06T11:47:04.567Z,5.28
2023-01-06T11:49:46.685Z,5.95
2023-01-06T11:52:26.510Z,5.40
2023-01-06T11:55:07.964Z,4.63
2023-01-06T11:57:46.548Z,4.00
2023-01-06T12:00:37.425Z,4.78
2023-01-06T12:03:34.604Z,8.20
2023-01-06T12:06:05.910Z,5.00
2023-01-06T12:08:56.896Z,4.03
2023-01-06T12:11:36.563Z,3.90
2023-01-06T12:14:13.072Z,3.70
2023-01-06T12:16:46.183Z,4.32
2023-01-06T12:19:21.795Z,4.57
2023-01-06T12:21:42.253Z,5.20
2023-01-06T12:24:06.496Z,4.93
2023-01-06T12:26:27.575Z,4.50
2023-01-06T12:28:49.392Z,1.75
2023-01-06T12:31:33.594Z,1.70
2023-01-06T12:34:19.182Z,1.52
2023-01-06T12:36:42.221Z,2.33
2023-01-06T12:39:05.337Z,1.83
2023-01-06T12:41:39.319Z,2.00
2023-01-06T12:44:35.848Z,1.88
2023-01-06T12:47:06.512Z,2.45
2023-01-06T12:49:45.249Z,2.72
2023-01-06T12:52:12.426Z,2.30
2023-01-06T12:54:34.319Z,1.83
2023-01-06T12:57:37.191Z,2.25
2023-01-06T13:00:06.369Z,2.08
2023-01-06T13:02:37.891Z,2.15
2023-01-06T13:05:06.476Z,2.30
2023-01-06T13:07:50.625Z,1.70
2023-01-06T13:10:41.379Z,2.53
2023-01-06T13:13:32.448Z,2.38
2023-01-06T13:15:54.080Z,2.05
2023-01-06T13:18:38.055Z,2.95
2023-01-06T13:21:08.828Z,2.80
2023-01-06T13:23:28.675Z,2.30
2023-01-06T13:26:07.561Z,3.22
2023-01-06T13:29:04.440Z,2.92
2023-01-06T13:31:51.471Z,2.85
2023-01-06T13:34:33.062Z,2.83
2023-01-06T13:37:24.495Z,3.78
2023-01-06T13:39:47.822Z,3.40
2023-01-06T13:42:13.312Z,4.03
2023-01-06T13:44:37.107Z,4.03
2023-01-06T13:47:05.119Z,3.05
2023-01-06T13:49:25.609Z,2.95
2023-01-06T13:51:46.721Z,3.83
2023-01-06T13:54:06.673Z,3.47
2023-01-06T13:56:37.413Z,3.75
2023-01-06T13:59:19.909Z,4.05
2023-01-06T14:01:39.780Z,3.35
2023-01-06T14:04:28.129Z,2.67
2023-01-06T14:06:48.989Z,4.93
2023-01-06T14:09:18.048Z,3.60
2023-01-06T14:11:38.794Z,3.15
2023-01-06T14:14:01.511Z,2.75
2023-01-06T14:16:22.373Z,2.83
2023-01-06T14:18:51.596Z,3.60
2023-01-06T14:21:20.016Z,4.10
2023-01-06T14:23:54.128Z,4.15
2023-01-06T14:26:14.473Z,4.53
2023-01-06T14:28:35.258Z,4.50
2023-01-06T14:31:26.197Z,3.83
2023-01-06T14:33:54.511Z,4.00
2023-01-06T14:36:16.230Z,4.00
2023-01-06T14:38:57.062Z,4.93
2023-01-06T14:41:24.389Z,3.70
2023-01-06T14:43:50.809Z,3.78
2023-01-06T14:46:21.486Z,4.40
2023-01-06T14:48:45.719Z,5.40
2023-01-06T14:51:06.459Z,4.07
2023-01-06T14:53:42.157Z,3.63
2023-01-06T14:56:04.408Z,3.78
2023-01-06T14:58:38.532Z,4.82
2023-01-06T15:01:00.384Z,3.50
2023-01-06T15:03:25.350Z,4.25
2023-01-06T15:05:45.650Z,5.18
2023-01-06T15:08:25.784Z,6.15
2023-01-06T15:10:48.136Z,6.68
2023-01-06T15:13:19.762Z,6.82
2023-01-06T15:15:39.752Z,4.85
2023-01-06T15:18:01.961Z,7.10
2023-01-06T15:20:27.198Z,5.38
2023-01-06T15:22:51.094Z,4.75
2023-01-06T15:25:21.523Z,6.10
2023-01-06T15:27:48.195Z,5.65
2023-01-06T15:30:17.710Z,7.88
2023-01-06T15:32:40.392Z,8.18
2023-01-06T15:35:00.893Z,9.38
2023-01-06T15:37:25.055Z,10.85
2023-01-06T15:39:45.543Z,10.70
2023-01-06T15:42:06.755Z,10.27
2023-01-06T15:44:34.294Z,8.83
2023-01-06T15:47:27.632Z,8.43
2023-01-06T15:49:52.770Z,9.23
2023-01-06T15:52:25.999Z,9.70
2023-01-06T15:54:46.268Z,9.38
2023-01-06T15:57:16.403Z,10.63
2023-01-06T15:59:38.155Z,9.85
2023-01-06T16:01:58.668Z,10.55
2023-01-06T16:04:19.144Z,10.75
2023-01-06T16:06:40.222Z,12.50
2023-01-06T16:09:18.324Z,9.95
2023-01-06T16:11:56.833Z,8.95
2023-01-06T16:14:45.886Z,9.68
2023-01-06T16:17:10.513Z,10.07
2023-01-06T16:19:32.027Z,11.85
2023-01-06T16:21:53.653Z,11.77
2023-01-06T16:24:31.306Z,10.80
2023-01-06T16:27:01.602Z,10.57
2023-01-06T16:29:30.223Z,10.18
2023-01-06T16:31:50.309Z,9.48
2023-01-06T16:34:30.902Z,9.00
2023-01-06T16:36:54.316Z,9.02
2023-01-06T16:39:14.634Z,10.55
2023-01-06T16:41:34.179Z,8.85
2023-01-06T16:43:53.915Z,9.18
2023-01-06T16:46:24.333Z,9.32
2023-01-06T16:48:44.255Z,9.55
2023-01-06T16:51:11.425Z,10.75
2023-01-06T16:53:34.286Z,11.07
2023-01-06T16:55:56.518Z,10.43
2023-01-06T16:58:25.938Z,10.13
2023-01-06T17:00:50.894Z,9.75
2023-01-06T17:03:15.506Z,9.90
2023-01-06T17:05:37.315Z,10.23
2023-01-06T17:08:01.694Z,10.13
2023-01-06T17:10:23.305Z,10.70
2023-01-06T17:13:02.910Z,8.88
2023-01-06T17:15:23.067Z,8.70
2023-01-06T17:17:43.178Z,9.55
2023-01-06T17:20:09.386Z,10.88
2023-01-06T17:22:30.266Z,11.27
2023-01-06T17:24:49.977Z,10.55
2023-01-06T17:27:20.885Z,9.95
2023-01-06T17:29:41.035Z,10.95
2023-01-06T17:32:02.944Z,9.25
2023-01-06T17:34:30.997Z,9.05
2023-01-06T17:36:54.695Z,8.48
2023-01-06T17:39:21.992Z,14.82
2023-01-06T17:41:42.034Z,12.05
2023-01-06T17:44:08.682Z,13.45
2023-01-06T17:46:31.594Z,10.30
2023-01-06T17:49:01.752Z,16.45
2023-01-06T17:51:22.030Z,14.27
2023-01-06T17:54:01.345Z,9.40
2023-01-06T17:56:23.100Z,11.60
2023-01-06T17:58:44.720Z,13.85
2023-01-06T18:01:08.015Z,15.20
2023-01-06T18:03:32.165Z,11.63
2023-01-06T18:06:18.879Z,10.65
2023-01-06T18:08:38.678Z,9.82
2023-01-06T18:11:29.086Z,10.60
2023-01-06T18:13:52.060Z,11.52
2023-01-06T18:16:20.769Z,9.48
2023-01-06T18:18:41.585Z,10.68
2023-01-06T18:21:16.723Z,10.52
2023-01-06T18:23:36.265Z,9.65
2023-01-06T18:25:58.608Z,10.18
2023-01-06T18:28:18.878Z,10.75
2023-01-06T18:30:39.339Z,16.15
2023-01-06T18:32:59.272Z,11.13
2023-01-06T18:35:28.158Z,11.07
2023-01-06T18:37:48.418Z,9.02
2023-01-06T18:40:16.118Z,12.73
2023-01-06T18:42:40.826Z,17.27
2023-01-06T18:45:21.571Z,20.85
2023-01-06T18:47:42.687Z,17.15
2023-01-06T18:50:25.008Z,16.08
2023-01-06T18:53:01.823Z,15.43
2023-01-06T18:55:26.324Z,17.52
2023-01-06T18:57:56.358Z,26.52
2023-01-06T19:00:54.143Z,26.77
2023-01-06T19:03:13.995Z,18.63
2023-01-06T19:05:33.656Z,20.77
2023-01-06T19:07:56.228Z,25.33
2023-01-06T19:12:47.303Z,17.40
2023-01-06T19:15:23.849Z,20.85
2023-01-06T19:17:45.347Z,22.83
2023-01-06T19:20:20.774Z,26.67
2023-01-06T19:22:40.429Z,32.80
2023-01-06T19:25:36.796Z,35.28
2023-01-06T19:27:57.801Z,38.40
2023-01-06T19:30:36.814Z,34.58
2023-01-06T19:33:16.222Z,39.00
2023-01-06T19:35:35.936Z,49.15
2023-01-06T19:38:19.147Z,44.80
2023-01-06T19:40:41.861Z,37.90
2023-01-06T19:43:15.689Z,26.13
2023-01-06T19:45:36.008Z,29.90
2023-01-06T19:47:58.109Z,23.13
2023-01-06T19:50:20.835Z,34.97
2023-01-06T19:52:41.150Z,29.27
2023-01-06T19:55:29.625Z,27.35
2023-01-06T19:57:53.409Z,26.77
2023-01-06T20:00:22.583Z,20.15
2023-01-06T20:02:45.196Z,23.15
2023-01-06T20:05:05.342Z,24.67
2023-01-06T20:07:25.425Z,24.38
2023-01-06T20:09:44.909Z,26.25
2023-01-06T20:12:04.803Z,20.98
2023-01-06T20:14:25.021Z,19.38
2023-01-06T20:16:46.003Z,27.42
2023-01-06T20:19:06.107Z,34.75
2023-01-06T20:21:25.870Z,33.20
2023-01-06T20:23:45.915Z,30.73
2023-01-06T20:26:05.929Z,30.00
2023-01-06T20:28:25.676Z,25.48
2023-01-06T20:30:46.441Z,26.02
2023-01-06T20:33:06.482Z,24.67
2023-01-06T20:35:30.849Z,25.08
2023-01-06T20:37:53.080Z,25.35
2023-01-06T20:41:11.574Z,26.48
2023-01-06T20:43:11.176Z,28.25
2023-01-06T20:48:21.598Z,30.30
2023-01-06T20:50:42.173Z,28.63
2023-01-06T20:53:02.107Z,27.90
2023-01-06T20:55:21.970Z,25.13
2023-01-06T20:57:41.781Z,23.33
2023-01-06T21:00:01.593Z,18.38
2023-01-06T21:02:21.849Z,17.17
2023-01-06T21:04:41.749Z,18.30
2023-01-06T21:07:01.550Z,18.33
2023-01-06T21:09:21.480Z,18.33
2023-01-06T21:11:41.411Z,19.20
2023-01-06T21:14:01.272Z,20.45
2023-01-06T21:16:22.042Z,19.75
2023-01-06T21:18:41.961Z,18.80
2023-01-06T21:21:01.885Z,18.73
2023-01-06T21:23:21.946Z,17.95
2023-01-06T21:25:42.082Z,19.13
2023-01-06T21:28:02.657Z,24.70
2023-01-06T21:30:23.721Z,19.02
2023-01-06T21:32:43.594Z,32.35
2023-01-06T21:35:03.778Z,32.72
2023-01-06T21:37:24.087Z,29.42
2023-01-06T21:39:43.843Z,29.48
2023-01-06T21:42:22.502Z,29.25
2023-01-06T21:44:42.942Z,31.80
2023-01-06T21:47:03.325Z,29.10
2023-01-06T21:49:23.019Z,27.58
2023-01-06T21:51:42.909Z,24.90
2023-01-06T21:54:04.198Z,24.38
2023-01-06T21:56:24.149Z,26.00
2023-01-06T21:58:43.948Z,27.35
2023-01-06T22:01:03.730Z,28.08
2023-01-06T22:03:23.951Z,28.50
2023-01-06T22:05:44.116Z,32.72
2023-01-06T22:08:05.509Z,34.40
2023-01-06T22:10:26.417Z,27.55
2023-01-06T22:12:48.625Z,27.67
2023-01-06T22:15:09.228Z,24.77
2023-01-06T22:17:29.283Z,22.92
2023-01-06T22:19:51.476Z,21.75
2023-01-06T22:22:11.951Z,21.27
2023-01-06T22:24:33.186Z,23.48
2023-01-06T22:26:53.001Z,23.67
2023-01-06T22:29:12.647Z,26.60
2023-01-06T22:31:32.605Z,23.00
2023-01-06T22:33:52.777Z,22.75
2023-01-06T22:36:12.646Z,21.65
2023-01-06T22:38:33.058Z,19.35
2023-01-06T22:40:53.034Z,19.42
2023-01-06T22:43:13.016Z,18.55
2023-01-06T22:45:36.307Z,19.98
2023-01-06T22:47:56.248Z,19.38
2023-01-06T22:50:16.036Z,21.73
2023-01-06T22:52:36.253Z,20.85
2023-01-06T22:54:56.442Z,19.52
2023-01-06T22:57:16.981Z,19.40
2023-01-06T22:59:37.284Z,17.23
2023-01-06T23:01:57.364Z,17.20
2023-01-06T23:04:17.434Z,19.42
2023-01-06T23:06:38.014Z,20.92
2023-01-06T23:09:00.735Z,20.73
2023-01-06T23:11:21.784Z,22.13
2023-01-06T23:13:42.519Z,23.02
2023-01-06T23:16:09.576Z,20.17
2023-01-06T23:18:31.390Z,20.45
2023-01-06T23:21:03.435Z,22.48
2023-01-06T23:23:23.186Z,20.85
2023-01-06T23:25:42.748Z,20.15
2023-01-06T23:28:02.568Z,19.73
2023-01-06T23:30:22.690Z,19.55
2023-01-06T23:32:42.247Z,19.80
2023-01-06T23:35:01.923Z,19.27
2023-01-06T23:37:22.050Z,19.42
2023-01-06T23:39:41.744Z,19.85
2023-01-06T23:42:03.627Z,21.52
2023-01-06T23:44:23.758Z,21.30
2023-01-06T23:46:45.000Z,20.52
2023-01-06T23:49:06.917Z,21.42
2023-01-06T23:51:31.622Z,22.35
2023-01-06T23:53:52.339Z,21.35
2023-01-06T23:56:13.683Z,22.52
2023-01-06T23:58:36.381Z,22.25
